Aérodrome :
LOGIN :

S'inscrire | Disclaimer

   EN    FR    IT 

 










Légende :    VFR   VFR Marginal   IFR   IFR Intensif   IFR Très Intensif
Visi : 
Plafond : 
>= 8 km
>= 3000ft
5 à 8 km
1000 à 3000 ft
1500m à 5 km
500 à 1000 ft
800 à 1500m
200 à 500 ft
< 800m
< 200 ft
Symboles :   Orages  Brouillard  Fortes neiges  Fortes précipitations  Vent > 20 kt
SIGMETs :   Divers  Orages  Givrage  Turbulence  Onde Orograph.  Cendres Volcan.







- Altitude de l'aérodrome : 529 ft
- Code IATA : CHR
- Voir les cartes d'approche


LFLX - Chateauroux

DERNIER METAR :
  • 230230Z AUTO 22010KT CAVOK 16/12 Q1018 TEMPO BKN012

METARs EXPIRÉS :
  • 230200Z AUTO 22010KT 9999 FEW043 BKN068 16/12 Q1018 TEMPO BKN012
  • 230130Z AUTO 22009KT 9999 FEW040 OVC064 16/12 Q1018 TEMPO BKN012
  • 230100Z AUTO 22009KT CAVOK 16/12 Q1018 NOSIG
  • 230030Z AUTO 22008KT CAVOK 15/12 Q1018 NOSIG
  • 230000Z AUTO 23007KT 9999 FEW029 15/12 Q1018 NOSIG
  • 222330Z AUTO 23009KT CAVOK 15/12 Q1018 NOSIG

TAF TAF LFLX
Valide du 23 à 00h jusqu'au 24 à 06h UTC


222300Z 2300/2406 22008KT CAVOK
TEMPO 2303/2308 BKN012
BECMG 2308/2310 24012KT 9999 BKN025
BECMG 2317/2320 -RA
TEMPO 2320/2324 RA OVC009
TEMPO 2400/2406 RA BKN003 BKN015TCU
Pas de NOTAMs connus pour ce terrain.



MET'MAP, la Météo Aéronautique d'un coup d'oeil ! - Copyright ORBIFLY Décembre 2007 - Disclaimer

ORBIFLY MET'MAP TEAM :

Programmation & Développement : Alexandra Zaïnal
Conception & Développement : Baudouin d'Aumeries
Co-Programmation & Développement : Marc-Olivier Méhu
Soutien technique & logistique : Manuel Goepfert

Contact : metmap@orbifly.com




SOURCES & CREDITS :

   NOAA